Terminal Aerodrome Forecast
Issued by NWS

Home | Current Version | Previous Version | Text Only | Print | Product List | Glossary On
Versions: 1 2 3 4 5 6 7 8 9 10 11 12 13 14 15
000
FTUS44 KCRP 201727
TAFLRD
TAF
KLRD 201727Z 2018/2118 12011G19KT P6SM SCT027 OVC040
      TEMPO 2018/2021 BKN027
     FM202100 13015KT P6SM OVC035
     FM210900 14008KT P6SM OVC018
     FM211600 14010KT P6SM SCT017 BKN035=

USA.gov is the U.S. government's official web portal to all federal, state and local government web resources and services.